YPA weather

Prince Albert Glass Field
Prince Albert, Saskatchewan, Canada

Public forecast

Using degrees Celsius for public forecast. Weather courtesy of forecast.io.

METAR (pilot weather report)

Retrieved 2019/05/24 15:00 UTC (8 minutes ago):

CYPA 241500Z 00000KT 15SM FEW120 BKN150 OVC250 14/03 A2979 RMK AC2AC4CI2 SLP097 DENSITY ALT 1800FT

TAF (pilot weather forecast)

Retrieved 2019/05/24 13:42 UTC (1 hour ago):

TAF CYPA 241239Z 2413/2501 VRB03KT P6SM SCT120 BKN150 TEMPO 2413/2501 BKN080 BECMG 2415/2417 06008KT RMK NXT FCST BY 241900Z